Time;durP1;ratioP1;P1;durP2;ratioP2;P2;SDS_P1;SDS_P2;PMS_P1;PMS_P2;Temp;Humidity;BMP_temperature;BMP_pressure;BME280_temperature;BME280_humidity;BME280_pressure;Samples;Min_cycle;Max_cycle;Signal;HPM_P1;HPM_P2
2023/02/19 00:02:47;;;;;;;7.40;5.80;;;;;;;4.77;91.10;99962.17;133703;1300;23044;-75
2023/02/19 00:05:47;;;;;;;8.20;5.80;;;;;;;4.77;91.00;99953.23;133698;1300;22420;-75
2023/02/19 00:08:48;;;;;;;9.60;6.30;;;;;;;4.77;91.24;99950.40;133742;1300;23353;-75
2023/02/19 00:11:49;;;;;;;11.30;6.10;;;;;;;4.80;90.88;99952.33;133690;1301;22207;-75
2023/02/19 00:14:49;;;;;;;7.80;6.10;;;;;;;4.79;90.98;99947.44;133712;1300;22160;-75
2023/02/19 00:17:50;;;;;;;9.90;6.60;;;;;;;4.79;91.10;99945.89;133720;1300;22562;-75
2023/02/19 00:20:50;;;;;;;8.80;6.60;;;;;;;4.78;91.14;99941.20;133690;1300;23120;-75
2023/02/19 00:23:54;;;;;;;9.20;6.30;;;;;;;4.80;90.91;99939.84;133699;1300;23232;-75
2023/02/19 00:26:55;;;;;;;8.90;6.40;;;;;;;4.81;91.18;99938.33;133684;1300;23096;-74
2023/02/19 00:29:55;;;;;;;7.30;5.50;;;;;;;4.82;91.28;99933.58;133731;1300;22414;-75
2023/02/19 00:32:56;;;;;;;7.50;5.60;;;;;;;4.81;91.09;99927.88;133487;1301;22176;-75
2023/02/19 00:36:04;;;;;;;8.10;5.70;;;;;;;4.80;91.12;99924.73;133690;1300;22533;-75
2023/02/19 00:39:06;;;;;;;8.40;5.40;;;;;;;4.77;91.14;99924.48;133705;1301;22420;-75
2023/02/19 00:42:06;;;;;;;8.20;5.80;;;;;;;4.76;91.29;99917.94;133746;1300;23229;-75
2023/02/19 00:45:07;;;;;;;6.80;5.10;;;;;;;4.77;91.24;99919.29;133640;1305;22423;-75
2023/02/19 00:48:08;;;;;;;7.00;5.10;;;;;;;4.76;91.60;99915.80;133760;1300;22547;-74
2023/02/19 00:51:09;;;;;;;7.40;5.70;;;;;;;4.77;91.52;99914.33;133710;1300;22344;-74
2023/02/19 00:54:10;;;;;;;;;;;;;;;4.77;91.66;99915.55;133711;1301;22675;-74
2023/02/19 00:57:10;;;;;;;8.90;6.40;;;;;;;4.75;91.49;99907.88;133722;1300;22356;-75
2023/02/19 01:00:11;;;;;;;8.50;6.90;;;;;;;4.74;91.75;99905.70;133714;1300;22255;-75
2023/02/19 01:03:12;;;;;;;9.30;6.30;;;;;;;4.74;91.94;99907.77;133692;1300;22834;-75
2023/02/19 01:06:16;;;;;;;8.50;5.90;;;;;;;4.75;91.91;99907.48;133606;1304;22466;-75
2023/02/19 01:09:17;;;;;;;9.90;6.20;;;;;;;4.77;91.83;99905.95;133657;1300;22544;-75
2023/02/19 01:12:17;;;;;;;9.40;6.60;;;;;;;4.78;91.97;99900.58;133693;1300;22428;-75
2023/02/19 01:15:18;;;;;;;7.70;6.10;;;;;;;4.77;91.89;99896.79;133496;1303;22387;-75
2023/02/19 01:18:19;;;;;;;8.90;6.50;;;;;;;4.75;92.13;99894.33;133641;1301;22144;-75
2023/02/19 01:21:22;;;;;;;8.80;7.00;;;;;;;4.75;92.04;99893.82;133674;1301;22424;-75
2023/02/19 01:24:23;;;;;;;10.30;7.90;;;;;;;4.75;91.92;99884.02;133668;1300;22832;-75
2023/02/19 01:27:23;;;;;;;14.30;9.50;;;;;;;4.76;92.33;99886.09;133597;1301;22412;-75
2023/02/19 01:30:24;;;;;;;15.70;9.90;;;;;;;4.76;92.49;99877.79;133728;1297;22270;-75
2023/02/19 01:33:24;;;;;;;19.80;10.70;;;;;;;4.76;92.43;99874.86;133742;1304;22422;-75
2023/02/19 01:36:26;;;;;;;19.50;10.50;;;;;;;4.74;92.53;99868.89;133717;1300;23231;-75
2023/02/19 01:39:27;;;;;;;19.60;10.30;;;;;;;4.74;92.46;99862.58;133738;1300;22377;-75
2023/02/19 01:42:27;;;;;;;14.10;8.60;;;;;;;4.74;92.74;99857.17;133622;1300;22399;-75
2023/02/19 01:45:30;;;;;;;11.20;7.40;;;;;;;4.72;92.93;99853.91;133696;1301;22410;-75
2023/02/19 01:48:36;;;;;;;12.30;7.30;;;;;;;4.72;92.99;99857.83;133591;1301;23234;-75
2023/02/19 01:51:41;;;;;;;11.10;7.00;;;;;;;4.72;92.87;99851.70;133526;1303;22509;-75
2023/02/19 01:54:44;;;;;;;9.00;6.60;;;;;;;4.71;93.41;99847.02;133710;1300;22430;-75
2023/02/19 01:57:50;;;;;;;9.10;6.60;;;;;;;4.71;93.63;99849.33;133725;1300;23121;-75
2023/02/19 02:00:51;;;;;;;8.70;6.00;;;;;;;4.71;93.35;99842.83;133465;1301;22530;-75
2023/02/19 02:03:53;;;;;;;7.40;5.20;;;;;;;4.71;93.56;99844.40;133735;1300;22436;-75
2023/02/19 02:06:56;;;;;;;8.80;5.60;;;;;;;4.71;93.80;99845.28;133613;1301;22265;-75
2023/02/19 02:13:16;;;;;;;6.30;5.00;;;;;;;4.72;94.18;99830.15;133749;1305;22393;-75
2023/02/19 02:16:34;;;;;;;7.50;4.90;;;;;;;4.73;94.26;99821.13;133710;1297;22416;-75
2023/02/19 02:19:40;;;;;;;6.40;5.10;;;;;;;4.72;94.55;99812.95;133752;1301;22429;-75
2023/02/19 02:22:40;;;;;;;6.30;4.60;;;;;;;4.72;94.31;99808.92;133722;1300;22398;-75
2023/02/19 02:25:48;;;;;;;5.70;4.60;;;;;;;4.73;94.43;99806.40;133626;1303;22478;-75
2023/02/19 02:29:26;;;;;;;4.90;3.80;;;;;;;4.74;94.61;99809.79;133479;1304;22238;-74
2023/02/19 02:32:34;;;;;;;6.70;3.90;;;;;;;4.74;94.38;99805.42;133698;1301;23222;-75
2023/02/19 02:35:48;;;;;;;5.90;3.90;;;;;;;4.76;94.31;99805.64;133741;1301;22423;-75
2023/02/19 02:38:52;;;;;;;4.80;3.20;;;;;;;4.75;94.37;99804.61;133661;1300;22185;-74
2023/02/19 02:45:41;;;;;;;9.50;3.10;;;;;;;4.77;94.60;99792.06;132784;1309;22866;-75
2023/02/19 02:49:03;;;;;;;4.30;3.10;;;;;;;4.77;94.36;99794.43;132916;1309;22378;-75
2023/02/19 02:55:01;;;;;;;12.10;4.10;;;;;;;4.78;94.25;99790.56;133462;1302;22417;-75
2023/02/19 02:55:28;;;;;;;;;;;;;;;4.78;94.37;99787.77;133731;1301;22493;-74
2023/02/19 02:58:31;;;;;;;5.30;3.40;;;;;;;4.78;94.58;99781.73;133749;1295;22434;-75
2023/02/19 03:08:38;;;;;;;4.00;3.40;;;;;;;4.81;94.86;99762.93;133522;1301;22473;-75
2023/02/19 03:22:21;;;;;;;6.30;4.50;;;;;;;4.82;95.00;99757.89;133643;1308;23172;-75
2023/02/19 03:32:18;;;;;;;6.60;5.00;;;;;;;4.82;95.65;99768.77;133556;1304;23345;-75
2023/02/19 03:35:26;;;;;;;6.20;4.70;;;;;;;4.83;95.42;99766.44;133453;1304;23202;-75
2023/02/19 03:38:39;;;;;;;8.10;5.60;;;;;;;4.83;95.55;99760.98;133521;1304;22915;-75
2023/02/19 03:42:03;;;;;;;8.00;5.50;;;;;;;4.84;95.70;99756.67;133415;1308;22228;-75
2023/02/19 03:45:13;;;;;;;8.60;6.20;;;;;;;4.85;95.65;99748.70;133644;1308;22254;-75
2023/02/19 03:48:21;;;;;;;7.30;5.70;;;;;;;4.85;95.76;99745.55;133729;1301;22210;-74
2023/02/19 03:51:37;;;;;;;7.10;5.90;;;;;;;4.85;95.77;99739.37;133519;1304;23120;-74
2023/02/19 03:55:16;;;;;;;8.70;6.10;;;;;;;4.86;95.87;99733.14;133444;1303;22956;-75
2023/02/19 03:58:27;;;;;;;8.20;5.80;;;;;;;4.88;96.14;99739.52;133288;1303;22496;-75
2023/02/19 04:01:27;;;;;;;8.70;5.90;;;;;;;4.88;95.84;99740.70;133555;1303;22358;-75
2023/02/19 04:04:34;;;;;;;6.90;5.70;;;;;;;4.90;96.13;99736.88;133541;1301;22425;-74
2023/02/19 04:07:40;;;;;;;6.90;5.60;;;;;;;4.90;96.05;99738.77;133721;1300;22478;-75
2023/02/19 04:10:45;;;;;;;6.10;4.80;;;;;;;4.89;96.18;99740.24;133493;1301;23123;-75
2023/02/19 04:13:54;;;;;;;6.60;4.50;;;;;;;4.90;96.32;99746.87;133651;1301;23207;-75
2023/02/19 04:17:03;;;;;;;7.50;4.40;;;;;;;4.89;96.18;99739.75;133768;1293;22421;-75
2023/02/19 04:20:07;;;;;;;5.40;4.40;;;;;;;4.88;96.38;99732.25;133711;1308;22955;-75
2023/02/19 04:23:08;;;;;;;7.40;4.80;;;;;;;4.89;96.64;99731.84;133688;1300;23137;-74
2023/02/19 04:26:10;;;;;;;4.50;4.10;;;;;;;4.90;96.34;99732.84;133690;1307;22414;-75
2023/02/19 04:29:11;;;;;;;7.20;4.90;;;;;;;4.90;96.46;99733.71;133743;1300;22565;-75
2023/02/19 04:32:13;;;;;;;6.30;4.90;;;;;;;4.89;96.40;99733.58;133699;1300;22484;-74
2023/02/19 04:35:13;;;;;;;5.30;4.70;;;;;;;4.89;96.56;99733.05;133724;1300;22383;-75
2023/02/19 04:38:14;;;;;;;6.20;4.00;;;;;;;4.89;96.64;99736.90;133691;1300;22502;-74
2023/02/19 04:41:14;;;;;;;10.00;4.50;;;;;;;4.88;96.41;99732.84;133715;1301;22182;-74
2023/02/19 04:44:15;;;;;;;5.40;4.40;;;;;;;4.88;96.85;99732.29;133739;1300;23200;-74
2023/02/19 04:47:16;;;;;;;6.40;4.30;;;;;;;4.90;96.94;99731.81;133679;1300;22223;-74
2023/02/19 04:50:17;;;;;;;4.90;4.40;;;;;;;4.89;96.91;99723.81;133741;1300;22230;-74
2023/02/19 04:53:18;;;;;;;4.80;4.30;;;;;;;4.90;96.80;99721.77;133690;1300;23174;-74
2023/02/19 04:56:19;;;;;;;5.60;4.50;;;;;;;4.91;96.63;99723.23;133730;1300;23064;-74
2023/02/19 04:59:19;;;;;;;6.80;5.00;;;;;;;4.93;96.65;99719.08;133706;1301;22364;-74
2023/02/19 05:02:19;;;;;;;5.60;4.90;;;;;;;4.94;96.77;99720.90;133703;1300;22963;-74
2023/02/19 05:05:20;;;;;;;9.70;5.70;;;;;;;4.96;96.75;99723.75;133694;1300;22140;-74
2023/02/19 05:08:20;;;;;;;5.90;5.20;;;;;;;4.97;97.05;99716.41;133708;1300;22416;-73
2023/02/19 05:11:22;;;;;;;8.40;6.20;;;;;;;4.98;97.05;99717.02;133690;1300;24357;-74
2023/02/19 05:14:23;;;;;;;13.90;7.10;;;;;;;5.00;97.06;99702.62;133677;1301;22426;-74
2023/02/19 05:17:23;;;;;;;9.20;7.50;;;;;;;5.00;97.00;99701.94;133730;1300;22399;-74
2023/02/19 05:20:24;;;;;;;8.20;7.00;;;;;;;5.00;97.18;99698.98;133537;1303;22372;-74
2023/02/19 05:23:26;;;;;;;11.00;7.90;;;;;;;5.00;97.07;99701.63;133687;1301;22602;-74
2023/02/19 05:26:27;;;;;;;11.00;8.80;;;;;;;4.99;97.23;99703.63;133717;1300;22443;-74
2023/02/19 05:29:30;;;;;;;9.10;7.40;;;;;;;4.99;97.32;99699.11;133716;1301;22419;-74
2023/02/19 05:32:30;;;;;;;10.40;8.30;;;;;;;4.98;97.08;99694.83;133662;1300;22455;-74
2023/02/19 05:35:31;;;;;;;9.70;7.80;;;;;;;4.97;97.20;99698.04;133691;1301;22602;-74
2023/02/19 05:38:31;;;;;;;11.90;8.40;;;;;;;4.95;97.22;99701.70;133688;1308;22456;-74
2023/02/19 05:41:33;;;;;;;8.80;7.20;;;;;;;4.94;97.38;99693.89;133699;1300;22362;-74
2023/02/19 05:44:33;;;;;;;10.30;7.40;;;;;;;4.93;97.32;99698.19;133694;1300;22421;-74
2023/02/19 05:47:34;;;;;;;10.80;7.10;;;;;;;4.93;97.15;99696.83;133720;1300;22439;-74
2023/02/19 05:50:35;;;;;;;9.90;6.80;;;;;;;4.92;97.56;99698.26;133683;1301;22361;-74
2023/02/19 05:53:46;;;;;;;10.10;7.60;;;;;;;4.93;97.28;99708.05;133696;1300;22437;-74
2023/02/19 05:56:47;;;;;;;7.90;6.50;;;;;;;4.92;97.42;99708.94;133716;1300;22210;-74
2023/02/19 05:59:48;;;;;;;9.20;7.20;;;;;;;4.91;97.34;99709.23;133732;1300;22413;-74
2023/02/19 06:02:48;;;;;;;9.20;7.10;;;;;;;4.92;97.38;99706.90;133694;1300;22414;-74
2023/02/19 06:05:49;;;;;;;10.60;7.70;;;;;;;4.92;97.47;99706.90;133685;1301;22420;-74
2023/02/19 06:08:50;;;;;;;9.50;7.20;;;;;;;4.93;97.49;99707.11;133654;1300;22429;-74
2023/02/19 06:11:51;;;;;;;9.10;7.00;;;;;;;4.92;97.29;99716.00;133687;1301;22919;-74
2023/02/19 06:14:51;;;;;;;7.60;4.20;;;;;;;4.90;97.82;99720.05;133697;1300;22408;-74
2023/02/19 06:17:52;;;;;;;6.80;4.70;;;;;;;4.85;97.35;99719.10;133718;1301;22384;-74
2023/02/19 06:20:52;;;;;;;4.50;4.00;;;;;;;4.79;97.41;99721.20;133689;1300;22516;-74
2023/02/19 06:23:53;;;;;;;8.10;5.40;;;;;;;4.76;97.11;99723.41;133680;1301;22984;-73
2023/02/19 06:26:53;;;;;;;6.70;5.30;;;;;;;4.74;97.28;99728.86;133712;1288;22331;-73
2023/02/19 06:29:54;;;;;;;7.10;5.10;;;;;;;4.70;97.30;99730.95;133686;1300;23162;-73
2023/02/19 06:32:55;;;;;;;7.60;5.50;;;;;;;4.66;97.28;99740.39;133709;1301;22939;-73
2023/02/19 06:36:00;;;;;;;6.40;5.40;;;;;;;4.63;97.54;99740.92;133679;1300;22892;-73
2023/02/19 06:39:02;;;;;;;6.60;5.40;;;;;;;4.57;97.19;99740.00;133713;1300;22441;-73
2023/02/19 06:42:03;;;;;;;8.80;7.30;;;;;;;4.51;97.65;99742.82;133682;1301;22437;-73
2023/02/19 06:45:04;;;;;;;7.70;5.50;;;;;;;4.46;97.36;99746.05;133690;1300;23061;-73
2023/02/19 06:48:04;;;;;;;5.30;4.40;;;;;;;4.39;96.85;99747.20;133672;1300;22815;-73
2023/02/19 06:51:05;;;;;;;5.10;3.70;;;;;;;4.30;97.26;99752.77;133649;1300;22379;-73
2023/02/19 06:54:06;;;;;;;4.00;3.50;;;;;;;4.20;96.62;99757.61;133648;1300;22195;-73
2023/02/19 06:57:06;;;;;;;5.20;4.10;;;;;;;4.14;96.84;99764.15;133604;1293;22374;-73
2023/02/19 07:00:08;;;;;;;4.20;2.70;;;;;;;4.06;96.51;99769.39;133615;1300;22172;-73
2023/02/19 07:03:10;;;;;;;3.20;2.90;;;;;;;3.95;96.35;99767.38;133606;1300;22965;-74
2023/02/19 07:06:11;;;;;;;3.60;2.70;;;;;;;3.90;96.41;99772.02;133595;1300;23186;-74
2023/02/19 07:09:12;;;;;;;5.10;3.70;;;;;;;3.85;96.35;99769.08;133590;1300;22571;-74
2023/02/19 07:12:12;;;;;;;3.70;3.40;;;;;;;3.80;96.65;99763.73;133574;1300;22182;-75
2023/02/19 07:15:13;;;;;;;4.30;3.40;;;;;;;3.77;96.39;99765.55;133622;1300;22408;-74
2023/02/19 07:18:13;;;;;;;4.40;3.30;;;;;;;3.75;96.39;99766.13;133592;1300;22378;-74
2023/02/19 07:21:15;;;;;;;4.70;3.30;;;;;;;3.74;96.15;99766.94;133582;1300;23177;-74
2023/02/19 07:24:16;;;;;;;3.00;2.60;;;;;;;3.71;96.30;99763.98;133482;1301;22419;-74
2023/02/19 07:27:17;;;;;;;2.60;2.30;;;;;;;3.70;95.96;99763.88;133606;1300;22501;-74
2023/02/19 07:30:18;;;;;;;2.90;2.50;;;;;;;3.69;95.74;99773.44;133623;1300;23258;-74
2023/02/19 07:33:18;;;;;;;;;;;;;;;3.67;95.96;99781.13;133656;1300;22952;-74
2023/02/19 07:36:21;;;;;;;3.10;2.50;;;;;;;3.64;95.60;99787.16;133647;1300;22149;-74
2023/02/19 07:39:22;;;;;;;3.50;2.50;;;;;;;3.60;95.55;99796.40;133553;1300;22394;-74
2023/02/19 07:42:22;;;;;;;4.60;2.20;;;;;;;3.56;95.63;99804.27;133616;1300;22987;-74
2023/02/19 07:45:23;;;;;;;;;;;;;;;3.53;95.80;99812.06;133669;1300;23217;-75
2023/02/19 07:48:24;;;;;;;3.10;2.40;;;;;;;3.50;95.61;99817.91;133634;1300;23132;-75
2023/02/19 07:51:24;;;;;;;5.00;3.10;;;;;;;3.45;95.64;99823.56;133666;1300;22480;-76
2023/02/19 07:54:25;;;;;;;4.10;2.90;;;;;;;3.45;95.92;99834.24;133702;1300;23131;-75
2023/02/19 07:57:30;;;;;;;3.10;2.10;;;;;;;3.40;95.51;99839.02;133566;1300;151748;-74
2023/02/19 08:00:30;;;;;;;5.00;2.20;;;;;;;3.27;94.22;99846.55;133685;1300;22852;-76
2023/02/19 08:03:31;;;;;;;3.60;2.10;;;;;;;3.15;94.25;99855.91;133722;1300;22522;-71
2023/02/19 08:06:31;;;;;;;8.90;2.50;;;;;;;3.09;94.06;99857.50;133701;1300;22469;-72
2023/02/19 08:09:32;;;;;;;6.20;2.50;;;;;;;3.02;93.84;99866.29;133637;1307;22247;-79
2023/02/19 08:15:53;;;;;;;6.40;2.40;;;;;;;2.90;93.85;99874.56;133685;1300;23144;-78
2023/02/19 08:18:53;;;;;;;7.90;3.50;;;;;;;2.85;93.92;99877.20;133710;1300;22513;-78
2023/02/19 08:21:54;;;;;;;7.70;3.10;;;;;;;2.85;94.16;99875.34;133716;1300;22471;-79
2023/02/19 08:24:54;;;;;;;6.30;3.40;;;;;;;2.82;94.03;99876.78;133740;1300;22236;-78
2023/02/19 08:27:55;;;;;;;4.90;3.50;;;;;;;2.82;94.30;99882.02;133644;1300;23039;-78
2023/02/19 08:31:01;;;;;;;7.00;2.50;;;;;;;2.82;94.15;99881.20;133465;1301;22384;-78
2023/02/19 08:34:03;;;;;;;7.00;3.00;;;;;;;2.75;93.78;99893.80;133603;1287;22190;-78
2023/02/19 08:37:03;;;;;;;4.50;2.10;;;;;;;2.64;93.64;99901.98;133636;1300;23238;-78
2023/02/19 08:40:04;;;;;;;6.40;2.20;;;;;;;2.54;93.66;99904.86;133608;1300;22506;-79
2023/02/19 08:43:07;;;;;;;;;;;;;;;2.46;93.52;99918.25;133572;1300;22491;-72
2023/02/19 08:46:09;;;;;;;6.00;2.10;;;;;;;2.39;93.83;99915.25;133608;1300;22545;-72
2023/02/19 08:49:09;;;;;;;3.50;2.20;;;;;;;2.36;93.74;99913.77;133612;1300;22475;-80
2023/02/19 08:52:10;;;;;;;2.70;2.20;;;;;;;2.32;93.80;99915.14;133598;1300;22283;-77
2023/02/19 08:55:11;;;;;;;4.80;3.00;;;;;;;2.31;93.87;99927.82;133535;1300;23126;-78
2023/02/19 08:58:11;;;;;;;8.60;4.70;;;;;;;2.32;93.97;99930.17;133576;1297;22513;-80
2023/02/19 09:01:17;;;;;;;5.60;3.10;;;;;;;2.33;94.22;99930.23;133625;1300;22495;-79
2023/02/19 09:04:17;;;;;;;8.10;3.10;;;;;;;2.35;94.11;99934.45;133608;1300;22381;-78
2023/02/19 09:07:18;;;;;;;4.80;2.80;;;;;;;2.38;93.97;99934.94;133621;1300;22441;-78
2023/02/19 09:10:19;;;;;;;7.60;2.70;;;;;;;2.41;94.22;99934.66;133628;1300;22430;-78
2023/02/19 09:13:19;;;;;;;5.40;2.40;;;;;;;2.48;94.14;99932.70;133599;1300;23288;-79
2023/02/19 09:16:20;;;;;;;6.90;2.80;;;;;;;2.56;94.22;99938.93;133592;1300;23672;-79
2023/02/19 09:19:20;;;;;;;4.50;2.80;;;;;;;2.64;94.27;99945.65;133646;1300;22251;-79
2023/02/19 09:22:21;;;;;;;9.40;3.70;;;;;;;2.73;94.35;99947.40;133571;1300;22430;-79
2023/02/19 09:25:22;;;;;;;4.70;3.00;;;;;;;2.78;94.37;99948.23;133585;1300;22497;-79
2023/02/19 09:28:22;;;;;;;9.00;4.20;;;;;;;2.82;94.24;99953.48;133570;1289;22552;-79
2023/02/19 09:31:23;;;;;;;12.30;4.10;;;;;;;2.84;94.16;99962.44;133595;1300;23210;-79
2023/02/19 09:34:24;;;;;;;9.10;4.60;;;;;;;2.83;93.86;99967.38;133523;1300;23283;-79
2023/02/19 09:37:26;;;;;;;6.20;3.00;;;;;;;2.86;93.91;99967.61;133546;1300;23212;-79
2023/02/19 09:40:28;;;;;;;6.00;3.20;;;;;;;2.94;94.04;99973.63;133388;1300;22577;-80
2023/02/19 09:43:29;;;;;;;9.10;3.20;;;;;;;3.05;93.97;99977.19;133485;1300;22504;-80
2023/02/19 09:46:51;;;;;;;12.30;3.50;;;;;;;3.17;94.25;99982.52;133526;1300;23548;-79
2023/02/19 09:50:03;;;;;;;10.30;3.70;;;;;;;3.27;94.12;99986.60;133508;1300;22432;-80
2023/02/19 09:53:11;;;;;;;5.20;3.20;;;;;;;3.34;94.10;99992.14;133447;1300;22424;-79
2023/02/19 09:56:11;;;;;;;7.60;3.60;;;;;;;3.42;93.78;99991.14;133567;1300;22507;-79
2023/02/19 09:59:21;;;;;;;11.40;3.60;;;;;;;3.49;93.75;99999.65;133530;1300;23215;-79
2023/02/19 10:02:24;;;;;;;7.10;3.30;;;;;;;3.60;93.52;100003.01;133512;1300;22422;-79
2023/02/19 10:05:25;;;;;;;8.60;3.10;;;;;;;3.68;93.14;100004.83;133617;1300;23175;-79
2023/02/19 10:08:26;;;;;;;9.40;3.50;;;;;;;3.81;93.39;100009.45;133552;1300;22420;-79
2023/02/19 10:11:26;;;;;;;;;;;;;;;3.98;93.34;100016.46;133568;1300;22478;-79
2023/02/19 10:14:39;;;;;;;7.40;3.10;;;;;;;4.11;92.99;100018.96;133574;1300;22526;-79
2023/02/19 10:17:39;;;;;;;5.60;2.60;;;;;;;4.17;92.11;100027.55;133594;1300;23722;-79
2023/02/19 10:20:40;;;;;;;6.30;2.90;;;;;;;4.22;92.05;100032.89;133611;1300;23074;-80
2023/02/19 10:23:42;;;;;;;4.10;2.10;;;;;;;4.23;91.07;100035.90;133588;1301;22985;-79
2023/02/19 10:26:43;;;;;;;5.90;2.50;;;;;;;4.20;89.74;100039.56;133590;1297;22502;-80
2023/02/19 10:29:46;;;;;;;5.50;2.00;;;;;;;4.13;88.01;100045.05;133594;1300;22389;-80
2023/02/19 10:33:13;;;;;;;5.40;2.40;;;;;;;4.05;88.01;100043.58;133552;1300;22514;-80
2023/02/19 10:36:25;;;;;;;9.40;2.70;;;;;;;4.05;88.91;100055.19;133615;1300;23225;-80
2023/02/19 10:39:35;;;;;;;3.10;2.30;;;;;;;4.08;89.00;100057.34;133645;1300;22423;-80
2023/02/19 10:42:47;;;;;;;8.40;2.50;;;;;;;4.09;87.98;100063.92;133600;1300;22501;-80
2023/02/19 10:45:49;;;;;;;7.60;3.00;;;;;;;4.08;86.64;100068.77;133583;1300;23095;-80
2023/02/19 10:48:53;;;;;;;8.50;2.80;;;;;;;4.06;86.76;100075.70;133584;1300;22144;-80
2023/02/19 10:51:56;;;;;;;7.60;2.70;;;;;;;4.09;86.58;100076.93;133629;1300;22234;-79
2023/02/19 10:55:15;;;;;;;5.40;2.00;;;;;;;4.03;85.85;100085.40;133606;1300;22418;-80
2023/02/19 10:58:27;;;;;;;4.60;2.40;;;;;;;3.98;86.53;100089.29;133607;1300;22373;-80
2023/02/19 11:01:28;;;;;;;9.00;3.40;;;;;;;3.99;86.39;100089.71;133603;1300;24374;-80
2023/02/19 11:04:34;;;;;;;;;;;;;;;4.00;85.86;100094.09;133624;1300;22652;-80
2023/02/19 11:07:36;;;;;;;7.50;2.10;;;;;;;3.98;85.78;100101.95;133622;1294;22442;-80
2023/02/19 11:10:43;;;;;;;6.40;2.80;;;;;;;3.98;86.05;100107.89;133589;1300;23277;-77
2023/02/19 11:13:44;;;;;;;5.20;2.40;;;;;;;4.00;85.80;100110.13;133657;1300;22424;-76
2023/02/19 11:16:57;;;;;;;4.30;2.20;;;;;;;4.05;85.78;100113.40;133662;1300;22208;-74
2023/02/19 11:20:03;;;;;;;6.20;2.40;;;;;;;4.19;85.97;100113.17;133721;1300;22354;-74
2023/02/19 11:23:16;;;;;;;12.00;3.20;;;;;;;4.32;85.44;100118.23;133708;1301;22506;-74
2023/02/19 11:26:23;;;;;;;5.90;2.70;;;;;;;4.43;85.54;100115.35;133716;1301;22386;-74
2023/02/19 11:29:27;;;;;;;5.20;2.00;;;;;;;4.53;83.89;100114.27;133756;1301;22369;-74
2023/02/19 11:32:29;;;;;;;8.10;2.20;;;;;;;4.44;83.46;100117.39;133764;1300;23179;-73
2023/02/19 11:35:30;;;;;;;6.40;2.60;;;;;;;4.40;83.16;100115.83;133744;1288;22360;-74
2023/02/19 11:38:30;;;;;;;5.80;2.30;;;;;;;4.37;82.53;100116.20;133776;1300;22431;-73
2023/02/19 11:42:02;;;;;;;6.80;2.40;;;;;;;4.28;81.61;100113.45;133758;1300;22409;-72
2023/02/19 11:45:21;;;;;;;8.30;2.30;;;;;;;4.17;81.42;100115.58;133758;1300;22380;-76
2023/02/19 11:48:32;;;;;;;5.90;2.80;;;;;;;4.12;81.49;100112.19;133749;1300;22442;-73
2023/02/19 11:51:40;;;;;;;6.30;2.20;;;;;;;4.14;82.00;100113.77;133748;1300;22137;-73
2023/02/19 11:54:48;;;;;;;10.20;2.60;;;;;;;4.40;82.22;100112.48;133745;1304;22437;-73
2023/02/19 11:58:09;;;;;;;11.40;3.00;;;;;;;4.72;82.58;100114.16;133746;1300;23196;-72
2023/02/19 12:01:19;;;;;;;9.00;2.90;;;;;;;5.05;82.75;100113.34;133720;1300;23403;-70
2023/02/19 12:04:35;;;;;;;8.30;3.10;;;;;;;5.35;82.53;100114.24;133749;1300;22887;-71
2023/02/19 12:08:01;;;;;;;7.70;2.90;;;;;;;5.71;82.03;100105.50;133729;1301;22357;-76
2023/02/19 12:11:33;;;;;;;9.30;3.10;;;;;;;5.72;79.46;100116.79;133821;1300;22179;-73
2023/02/19 12:14:48;;;;;;;5.20;2.70;;;;;;;5.46;79.01;100125.73;133737;1300;22551;-75
2023/02/19 12:18:25;;;;;;;8.40;2.70;;;;;;;5.18;78.36;100136.73;133698;1300;22384;-76
2023/02/19 12:22:02;;;;;;;5.40;2.70;;;;;;;4.88;76.72;100144.87;133710;1300;22480;-75
2023/02/19 12:25:40;;;;;;;5.40;2.30;;;;;;;4.85;77.31;100154.15;133813;1300;22450;-77
2023/02/19 12:29:00;;;;;;;6.90;2.10;;;;;;;5.05;76.99;100161.24;133758;1300;22420;-75
2023/02/19 12:32:39;;;;;;;9.10;2.50;;;;;;;5.28;76.09;100165.37;133742;1300;23176;-74
2023/02/19 12:35:46;;;;;;;8.60;2.40;;;;;;;5.60;74.94;100167.30;133523;1301;22413;-75
2023/02/19 12:39:00;;;;;;;6.10;2.30;;;;;;;5.79;75.14;100172.31;133705;1300;22544;-74
2023/02/19 12:42:30;;;;;;;7.50;2.40;;;;;;;5.89;73.76;100175.17;133681;1300;22497;-76
2023/02/19 12:45:53;;;;;;;10.20;3.30;;;;;;;5.75;73.28;100182.50;133607;1303;22344;-75
2023/02/19 12:49:01;;;;;;;6.30;2.80;;;;;;;5.52;73.40;100178.89;133686;1300;22513;-75
2023/02/19 12:52:27;;;;;;;9.10;2.90;;;;;;;5.33;73.19;100178.99;133703;1300;24264;-75
2023/02/19 12:55:37;;;;;;;11.50;2.90;;;;;;;5.20;72.40;100179.91;133635;1300;23136;-74
2023/02/19 12:58:47;;;;;;;6.50;2.20;;;;;;;5.10;72.56;100182.65;133673;1300;23289;-75
2023/02/19 13:02:29;;;;;;;11.30;3.60;;;;;;;5.12;71.46;100187.59;133571;1300;23265;-75
2023/02/19 13:05:48;;;;;;;10.20;3.80;;;;;;;5.14;71.05;100193.71;133508;1303;22544;-75
2023/02/19 13:09:06;;;;;;;8.40;3.60;;;;;;;5.03;71.68;100212.55;133767;1300;22411;-74
2023/02/19 13:12:17;;;;;;;8.60;3.20;;;;;;;4.90;71.64;100220.32;133460;1302;22430;-73
2023/02/19 13:15:28;;;;;;;5.10;3.30;;;;;;;4.77;72.18;100221.56;133727;1300;22496;-74
2023/02/19 13:18:39;;;;;;;5.60;2.60;;;;;;;4.73;72.90;100230.31;133694;1300;23530;-74
2023/02/19 13:25:04;;;;;;;12.00;5.10;;;;;;;4.61;71.27;100232.14;133741;1300;22295;-82
2023/02/19 13:28:44;;;;;;;11.60;4.90;;;;;;;4.53;71.92;100240.40;133724;1300;22429;-76
2023/02/19 13:31:50;;;;;;;11.20;4.50;;;;;;;4.49;71.65;100239.44;133685;1300;22365;-74
2023/02/19 13:35:09;;;;;;;7.20;2.90;;;;;;;4.47;72.37;100240.42;133732;1305;22273;-72
2023/02/19 13:38:12;;;;;;;5.90;2.40;;;;;;;4.46;72.25;100239.61;133722;1300;23172;-71
2023/02/19 13:41:19;;;;;;;5.80;2.90;;;;;;;4.47;72.21;100244.83;133690;1300;22383;-73
2023/02/19 13:44:40;;;;;;;6.20;2.70;;;;;;;4.47;71.75;100246.91;133468;1302;22190;-74
2023/02/19 13:47:52;;;;;;;8.80;3.10;;;;;;;4.41;70.94;100245.70;133506;1303;22238;-74
2023/02/19 13:51:15;;;;;;;7.00;2.60;;;;;;;4.35;70.94;100247.90;133584;1306;22957;-73
2023/02/19 13:54:26;;;;;;;7.10;2.80;;;;;;;4.38;71.24;100254.50;133626;1303;22446;-70
2023/02/19 13:57:28;;;;;;;11.70;2.50;;;;;;;4.44;71.31;100254.38;133621;1304;22601;-71
2023/02/19 14:00:50;;;;;;;11.00;2.60;;;;;;;4.50;71.10;100260.75;133418;1303;22412;-72
2023/02/19 14:04:07;;;;;;;8.20;2.50;;;;;;;4.49;70.47;100259.61;133350;1303;22408;-72
2023/02/19 14:07:07;;;;;;;7.60;2.10;;;;;;;4.43;69.74;100255.35;133668;1300;22450;-69
2023/02/19 14:10:12;;;;;;;5.30;2.20;;;;;;;4.37;70.08;100258.45;133678;1300;22387;-70
2023/02/19 14:13:55;;;;;;;6.80;2.30;;;;;;;4.41;70.33;100267.42;133408;1303;22437;-68
2023/02/19 14:17:07;;;;;;;5.30;2.20;;;;;;;4.53;71.01;100270.80;133695;1300;23823;-71
2023/02/19 14:20:08;;;;;;;7.00;2.30;;;;;;;4.60;70.27;100270.62;133624;1300;23207;-69
2023/02/19 14:23:22;;;;;;;7.10;2.40;;;;;;;4.60;70.85;100273.41;133598;1300;23514;-75
2023/02/19 14:26:25;;;;;;;8.90;3.20;;;;;;;4.58;70.78;100273.27;133618;1300;22361;-72
2023/02/19 14:29:27;;;;;;;7.60;1.80;;;;;;;4.47;69.85;100272.70;133702;1300;23033;-72
2023/02/19 14:32:28;;;;;;;7.80;1.70;;;;;;;4.39;69.57;100277.05;133644;1300;22427;-73
2023/02/19 14:35:40;;;;;;;7.60;2.30;;;;;;;4.33;68.98;100280.87;133698;1300;22443;-73
2023/02/19 14:38:47;;;;;;;8.60;3.60;;;;;;;4.26;69.32;100285.74;133662;1300;22448;-70
2023/02/19 14:41:57;;;;;;;9.90;2.90;;;;;;;4.20;68.63;100285.73;133444;1303;23145;-74
2023/02/19 14:45:04;;;;;;;8.00;3.20;;;;;;;4.18;68.98;100293.98;133634;1301;22382;-73
2023/02/19 14:48:08;;;;;;;13.20;4.70;;;;;;;4.24;69.79;100302.95;133698;1300;22466;-73
2023/02/19 14:51:23;;;;;;;9.50;3.00;;;;;;;4.32;69.89;100306.64;133705;1300;23269;-71
2023/02/19 14:54:49;;;;;;;9.00;2.70;;;;;;;4.33;68.75;100303.31;133756;1300;23090;-72
2023/02/19 14:57:52;;;;;;;8.90;2.90;;;;;;;4.24;68.10;100313.05;133770;1300;22430;-73
2023/02/19 15:00:53;;;;;;;10.10;2.70;;;;;;;4.17;68.73;100322.52;133701;1303;22459;-73
2023/02/19 15:03:55;;;;;;;7.90;2.60;;;;;;;4.12;68.74;100325.77;133764;1300;22375;-73
2023/02/19 15:06:59;;;;;;;8.60;3.10;;;;;;;4.10;68.84;100322.39;133712;1300;22497;-73
2023/02/19 15:10:04;;;;;;;7.10;2.40;;;;;;;4.09;68.65;100328.31;133753;1301;23120;-73
2023/02/19 15:13:07;;;;;;;7.10;2.70;;;;;;;4.04;68.65;100334.40;133726;1300;22430;-72